sensor_id;sensor_type;location;lat;lon;timestamp;temperature;humidity
57719;DHT22;43561;50.090;18.522;2023-05-07T00:01:58;9.70;99.90
57719;DHT22;43561;50.090;18.522;2023-05-07T00:12:00;9.70;99.90
57719;DHT22;43561;50.090;18.522;2023-05-07T00:22:03;9.60;99.90
57719;DHT22;43561;50.090;18.522;2023-05-07T00:32:05;9.50;99.90
57719;DHT22;43561;50.090;18.522;2023-05-07T00:42:07;9.40;99.90
57719;DHT22;43561;50.090;18.522;2023-05-07T00:52:17;9.50;99.90
57719;DHT22;43561;50.090;18.522;2023-05-07T01:02:19;9.50;99.90
57719;DHT22;43561;50.090;18.522;2023-05-07T01:12:21;9.50;99.90
57719;DHT22;43561;50.090;18.522;2023-05-07T01:22:36;9.50;99.90
57719;DHT22;43561;50.090;18.522;2023-05-07T01:33:13;9.50;99.90
57719;DHT22;43561;50.090;18.522;2023-05-07T01:43:14;9.40;99.90
57719;DHT22;43561;50.090;18.522;2023-05-07T01:53:16;9.30;99.90
57719;DHT22;43561;50.090;18.522;2023-05-07T02:03:18;9.30;99.90
57719;DHT22;43561;50.090;18.522;2023-05-07T02:13:32;9.20;99.90
57719;DHT22;43561;50.090;18.522;2023-05-07T02:23:35;9.00;99.90
57719;DHT22;43561;50.090;18.522;2023-05-07T02:33:37;9.10;99.90
57719;DHT22;43561;50.090;18.522;2023-05-07T02:43:41;9.00;99.90
57719;DHT22;43561;50.090;18.522;2023-05-07T02:53:44;9.00;99.90
57719;DHT22;43561;50.090;18.522;2023-05-07T03:03:47;9.00;99.90
57719;DHT22;43561;50.090;18.522;2023-05-07T03:13:49;8.90;99.90
57719;DHT22;43561;50.090;18.522;2023-05-07T03:23:52;9.00;99.90
57719;DHT22;43561;50.090;18.522;2023-05-07T03:33:56;8.90;99.90
57719;DHT22;43561;50.090;18.522;2023-05-07T03:43:59;8.80;99.90
57719;DHT22;43561;50.090;18.522;2023-05-07T03:54:01;8.80;99.90
57719;DHT22;43561;50.090;18.522;2023-05-07T04:04:05;8.60;99.90
57719;DHT22;43561;50.090;18.522;2023-05-07T04:14:10;8.50;99.90
57719;DHT22;43561;50.090;18.522;2023-05-07T04:24:12;8.70;99.90
57719;DHT22;43561;50.090;18.522;2023-05-07T04:34:14;8.60;99.90
57719;DHT22;43561;50.090;18.522;2023-05-07T04:44:16;8.50;99.90
57719;DHT22;43561;50.090;18.522;2023-05-07T04:54:19;8.40;99.90
57719;DHT22;43561;50.090;18.522;2023-05-07T05:04:21;8.40;99.90
57719;DHT22;43561;50.090;18.522;2023-05-07T05:14:24;8.40;99.90
57719;DHT22;43561;50.090;18.522;2023-05-07T05:24:27;8.30;99.90
57719;DHT22;43561;50.090;18.522;2023-05-07T05:34:29;8.20;99.90
57719;DHT22;43561;50.090;18.522;2023-05-07T05:44:31;8.10;99.90
57719;DHT22;43561;50.090;18.522;2023-05-07T05:54:35;8.00;99.90
57719;DHT22;43561;50.090;18.522;2023-05-07T06:04:37;8.10;99.90
57719;DHT22;43561;50.090;18.522;2023-05-07T06:14:40;7.90;99.90
57719;DHT22;43561;50.090;18.522;2023-05-07T06:24:45;8.00;99.90
57719;DHT22;43561;50.090;18.522;2023-05-07T06:34:47;7.90;99.90
57719;DHT22;43561;50.090;18.522;2023-05-07T06:44:50;7.70;99.90
57719;DHT22;43561;50.090;18.522;2023-05-07T06:54:52;7.90;99.90
57719;DHT22;43561;50.090;18.522;2023-05-07T07:04:57;7.80;99.90
57719;DHT22;43561;50.090;18.522;2023-05-07T07:14:59;8.00;99.90
57719;DHT22;43561;50.090;18.522;2023-05-07T07:25:02;7.80;99.90
57719;DHT22;43561;50.090;18.522;2023-05-07T07:35:04;7.60;99.90
57719;DHT22;43561;50.090;18.522;2023-05-07T07:45:07;7.50;99.90
57719;DHT22;43561;50.090;18.522;2023-05-07T07:55:13;7.40;99.90
57719;DHT22;43561;50.090;18.522;2023-05-07T08:05:16;7.40;99.90
57719;DHT22;43561;50.090;18.522;2023-05-07T08:15:19;7.90;99.90
57719;DHT22;43561;50.090;18.522;2023-05-07T08:25:23;8.10;99.90
57719;DHT22;43561;50.090;18.522;2023-05-07T08:35:25;8.00;99.90
57719;DHT22;43561;50.090;18.522;2023-05-07T08:45:28;8.30;99.90
57719;DHT22;43561;50.090;18.522;2023-05-07T08:55:31;8.50;99.90
57719;DHT22;43561;50.090;18.522;2023-05-07T09:05:34;8.90;99.90
57719;DHT22;43561;50.090;18.522;2023-05-07T09:15:36;9.00;99.90
57719;DHT22;43561;50.090;18.522;2023-05-07T09:25:38;9.00;99.90
57719;DHT22;43561;50.090;18.522;2023-05-07T09:35:52;8.90;99.90
57719;DHT22;43561;50.090;18.522;2023-05-07T09:45:57;8.90;99.90
57719;DHT22;43561;50.090;18.522;2023-05-07T09:56:02;9.00;99.90
57719;DHT22;43561;50.090;18.522;2023-05-07T10:06:08;8.70;99.90
57719;DHT22;43561;50.090;18.522;2023-05-07T10:16:10;8.80;99.90
57719;DHT22;43561;50.090;18.522;2023-05-07T10:26:20;8.80;99.90
57719;DHT22;43561;50.090;18.522;2023-05-07T10:36:24;8.80;99.90
57719;DHT22;43561;50.090;18.522;2023-05-07T10:46:27;8.80;99.90
57719;DHT22;43561;50.090;18.522;2023-05-07T10:56:50;8.80;99.90
57719;DHT22;43561;50.090;18.522;2023-05-07T11:17:12;8.70;99.90
57719;DHT22;43561;50.090;18.522;2023-05-07T11:27:23;8.90;99.90
57719;DHT22;43561;50.090;18.522;2023-05-07T11:37:27;8.80;99.90
57719;DHT22;43561;50.090;18.522;2023-05-07T11:47:36;8.70;99.90
57719;DHT22;43561;50.090;18.522;2023-05-07T11:57:39;8.70;99.90
57719;DHT22;43561;50.090;18.522;2023-05-07T12:07:41;8.40;99.90
57719;DHT22;43561;50.090;18.522;2023-05-07T12:17:44;8.70;99.90
57719;DHT22;43561;50.090;18.522;2023-05-07T12:27:51;8.80;99.90
57719;DHT22;43561;50.090;18.522;2023-05-07T12:38:00;9.10;99.90
57719;DHT22;43561;50.090;18.522;2023-05-07T12:48:02;8.80;99.90
57719;DHT22;43561;50.090;18.522;2023-05-07T12:58:04;8.80;99.90
57719;DHT22;43561;50.090;18.522;2023-05-07T13:08:06;8.60;99.90
57719;DHT22;43561;50.090;18.522;2023-05-07T13:18:08;8.60;99.90
57719;DHT22;43561;50.090;18.522;2023-05-07T13:28:10;8.40;99.90
57719;DHT22;43561;50.090;18.522;2023-05-07T13:38:12;8.40;99.90
57719;DHT22;43561;50.090;18.522;2023-05-07T13:48:14;8.20;99.90
57719;DHT22;43561;50.090;18.522;2023-05-07T13:58:16;8.30;99.90
57719;DHT22;43561;50.090;18.522;2023-05-07T14:08:18;8.60;99.90
57719;DHT22;43561;50.090;18.522;2023-05-07T14:18:20;8.80;99.90
57719;DHT22;43561;50.090;18.522;2023-05-07T14:28:22;8.80;99.90
57719;DHT22;43561;50.090;18.522;2023-05-07T14:38:24;8.60;99.90
57719;DHT22;43561;50.090;18.522;2023-05-07T14:48:26;8.50;99.90
57719;DHT22;43561;50.090;18.522;2023-05-07T14:58:28;8.60;99.90
57719;DHT22;43561;50.090;18.522;2023-05-07T15:08:30;8.60;99.90
57719;DHT22;43561;50.090;18.522;2023-05-07T15:18:32;8.40;99.90
57719;DHT22;43561;50.090;18.522;2023-05-07T15:28:34;8.50;99.90
57719;DHT22;43561;50.090;18.522;2023-05-07T15:38:36;8.50;99.90
57719;DHT22;43561;50.090;18.522;2023-05-07T15:48:38;8.30;99.90
57719;DHT22;43561;50.090;18.522;2023-05-07T15:58:40;8.20;99.90
57719;DHT22;43561;50.090;18.522;2023-05-07T16:08:42;8.10;99.90
57719;DHT22;43561;50.090;18.522;2023-05-07T16:18:44;8.30;99.90
57719;DHT22;43561;50.090;18.522;2023-05-07T16:28:46;8.30;99.90
57719;DHT22;43561;50.090;18.522;2023-05-07T16:38:48;8.20;99.90
57719;DHT22;43561;50.090;18.522;2023-05-07T16:48:50;7.80;99.90
57719;DHT22;43561;50.090;18.522;2023-05-07T16:58:52;7.80;99.90
57719;DHT22;43561;50.090;18.522;2023-05-07T17:08:54;7.70;99.90
57719;DHT22;43561;50.090;18.522;2023-05-07T17:18:56;7.60;99.90
57719;DHT22;43561;50.090;18.522;2023-05-07T17:28:58;7.50;99.90
57719;DHT22;43561;50.090;18.522;2023-05-07T17:39:00;7.50;99.90
57719;DHT22;43561;50.090;18.522;2023-05-07T17:49:02;7.40;99.90
57719;DHT22;43561;50.090;18.522;2023-05-07T17:59:04;7.50;99.90
57719;DHT22;43561;50.090;18.522;2023-05-07T18:09:06;7.40;99.90
57719;DHT22;43561;50.090;18.522;2023-05-07T18:19:09;7.30;99.90
57719;DHT22;43561;50.090;18.522;2023-05-07T18:29:11;7.30;99.90
57719;DHT22;43561;50.090;18.522;2023-05-07T18:39:13;7.20;99.90
57719;DHT22;43561;50.090;18.522;2023-05-07T18:49:15;7.10;99.90
57719;DHT22;43561;50.090;18.522;2023-05-07T18:59:17;7.10;99.90
57719;DHT22;43561;50.090;18.522;2023-05-07T19:09:18;7.20;99.90
57719;DHT22;43561;50.090;18.522;2023-05-07T19:19:20;7.10;99.90
57719;DHT22;43561;50.090;18.522;2023-05-07T19:29:23;7.10;99.90
57719;DHT22;43561;50.090;18.522;2023-05-07T19:39:25;7.10;99.90
57719;DHT22;43561;50.090;18.522;2023-05-07T19:49:27;7.00;99.90
57719;DHT22;43561;50.090;18.522;2023-05-07T19:59:29;7.00;99.90
57719;DHT22;43561;50.090;18.522;2023-05-07T20:09:31;7.00;99.90
57719;DHT22;43561;50.090;18.522;2023-05-07T20:19:33;7.00;99.90
57719;DHT22;43561;50.090;18.522;2023-05-07T20:29:35;6.90;99.90
57719;DHT22;43561;50.090;18.522;2023-05-07T20:39:38;6.90;99.90
57719;DHT22;43561;50.090;18.522;2023-05-07T20:49:40;6.90;99.90
57719;DHT22;43561;50.090;18.522;2023-05-07T20:59:42;6.80;99.90
57719;DHT22;43561;50.090;18.522;2023-05-07T21:09:44;6.90;99.90
57719;DHT22;43561;50.090;18.522;2023-05-07T21:19:45;6.80;99.90
57719;DHT22;43561;50.090;18.522;2023-05-07T21:29:47;6.80;99.90
57719;DHT22;43561;50.090;18.522;2023-05-07T21:39:49;6.80;99.90
57719;DHT22;43561;50.090;18.522;2023-05-07T21:49:52;6.70;99.90
57719;DHT22;43561;50.090;18.522;2023-05-07T21:59:54;6.70;99.90
57719;DHT22;43561;50.090;18.522;2023-05-07T22:09:55;6.60;99.90
57719;DHT22;43561;50.090;18.522;2023-05-07T22:19:57;6.60;99.90
57719;DHT22;43561;50.090;18.522;2023-05-07T22:29:59;6.50;99.90
57719;DHT22;43561;50.090;18.522;2023-05-07T22:40:01;6.50;99.90
57719;DHT22;43561;50.090;18.522;2023-05-07T22:50:04;6.30;99.90
57719;DHT22;43561;50.090;18.522;2023-05-07T23:00:07;6.40;99.90
57719;DHT22;43561;50.090;18.522;2023-05-07T23:10:09;6.40;99.90
57719;DHT22;43561;50.090;18.522;2023-05-07T23:20:12;6.40;99.90
57719;DHT22;43561;50.090;18.522;2023-05-07T23:30:15;6.30;99.90
57719;DHT22;43561;50.090;18.522;2023-05-07T23:40:17;6.40;99.90
57719;DHT22;43561;50.090;18.522;2023-05-07T23:50:19;6.30;99.90
